Time;durP1;ratioP1;P1;durP2;ratioP2;P2;SDS_P1;SDS_P2;PMS_P1;PMS_P2;Temp;Humidity;BMP_temperature;BMP_pressure;BME280_temperature;BME280_humidity;BME280_pressure;Samples;Min_cycle;Max_cycle;Signal;HPM_P1;HPM_P2
2023/12/30 00:01:07;;;;;;;2.50;0.30;;;7.40;99.90;;;;;;5110066;27;20043;-71
2023/12/30 00:03:33;;;;;;;1.08;0.40;;;7.40;99.90;;;;;;5113875;27;20079;-71
2023/12/30 00:05:59;;;;;;;0.22;0.10;;;7.40;99.90;;;;;;5105848;27;20039;-71
2023/12/30 00:08:24;;;;;;;0.60;0.30;;;7.40;99.90;;;;;;5090397;28;20750;-71
2023/12/30 00:10:50;;;;;;;0.30;0.13;;;7.40;99.90;;;;;;5077926;28;20435;-71
2023/12/30 00:13:16;;;;;;;0.45;0.10;;;7.30;99.90;;;;;;5086715;28;20051;-71
2023/12/30 00:15:42;;;;;;;4.10;0.38;;;7.30;99.90;;;;;;5110116;27;20111;-71
2023/12/30 00:18:07;;;;;;;0.43;0.20;;;7.30;99.90;;;;;;5085518;27;20114;-71
2023/12/30 00:20:33;;;;;;;0.38;0.13;;;7.30;99.90;;;;;;5093876;27;20054;-71
2023/12/30 00:22:59;;;;;;;0.30;0.17;;;7.20;99.90;;;;;;5096597;27;20130;-71
2023/12/30 00:25:25;;;;;;;1.98;0.20;;;7.20;99.90;;;;;;5104587;27;20041;-71
2023/12/30 00:27:51;;;;;;;0.47;0.20;;;7.20;99.90;;;;;;5093803;28;20413;-71
2023/12/30 00:30:17;;;;;;;1.20;0.22;;;7.20;99.90;;;;;;5108536;27;20057;-71
2023/12/30 00:32:43;;;;;;;2.95;0.32;;;7.20;99.90;;;;;;5106695;27;20484;-71
2023/12/30 00:35:09;;;;;;;0.50;0.20;;;7.20;99.90;;;;;;5101807;27;20613;-71
2023/12/30 00:37:34;;;;;;;0.30;0.22;;;7.20;99.90;;;;;;5105501;27;20028;-71
2023/12/30 00:40:00;;;;;;;1.27;0.30;;;7.10;99.90;;;;;;5087319;27;20039;-71
2023/12/30 00:42:26;;;;;;;0.30;0.20;;;7.10;99.90;;;;;;5113385;27;20324;-71
2023/12/30 00:44:51;;;;;;;0.60;0.20;;;7.10;99.90;;;;;;5088197;27;20046;-71
2023/12/30 00:47:17;;;;;;;0.32;0.20;;;7.10;99.90;;;;;;5113665;27;20042;-71
2023/12/30 00:49:43;;;;;;;0.50;0.38;;;7.10;99.90;;;;;;5110660;27;20039;-71
2023/12/30 00:52:09;;;;;;;1.00;0.63;;;7.10;99.90;;;;;;5103861;27;20036;-71
2023/12/30 00:54:36;;;;;;;0.88;0.40;;;7.00;99.90;;;;;;5089555;27;20120;-70
2023/12/30 00:57:02;;;;;;;3.50;0.30;;;7.00;99.90;;;;;;5112030;27;20198;-71
2023/12/30 00:59:28;;;;;;;1.55;0.55;;;7.00;99.90;;;;;;5116975;27;20122;-71
2023/12/30 01:01:53;;;;;;;0.65;0.20;;;7.00;99.90;;;;;;5111646;27;20035;-71
2023/12/30 01:04:19;;;;;;;2.45;0.20;;;6.90;99.90;;;;;;5108958;27;20046;-71
2023/12/30 01:06:45;;;;;;;0.30;0.20;;;6.90;99.90;;;;;;5104511;27;20031;-71
2023/12/30 01:09:10;;;;;;;0.40;0.20;;;6.90;99.90;;;;;;5092718;27;20046;-71
2023/12/30 01:11:36;;;;;;;0.25;0.10;;;6.90;99.90;;;;;;5110358;27;20125;-71
2023/12/30 01:14:02;;;;;;;1.08;0.20;;;6.90;99.90;;;;;;5108290;27;20725;-71
2023/12/30 01:16:27;;;;;;;0.75;0.30;;;6.90;99.90;;;;;;5113011;27;20043;-71
2023/12/30 01:18:53;;;;;;;0.88;0.50;;;6.90;99.90;;;;;;5106850;27;20169;-71
2023/12/30 01:21:19;;;;;;;4.95;0.40;;;6.90;99.90;;;;;;5107881;27;20046;-71
2023/12/30 01:23:44;;;;;;;1.67;0.30;;;6.90;99.90;;;;;;5095763;27;20039;-71
2023/12/30 01:26:10;;;;;;;0.10;0.10;;;6.90;99.90;;;;;;5094994;27;20394;-70
2023/12/30 01:28:36;;;;;;;0.85;0.22;;;6.90;99.90;;;;;;5107289;27;20027;-71
2023/12/30 01:31:03;;;;;;;1.25;0.20;;;6.90;99.90;;;;;;5111809;27;20114;-71
2023/12/30 01:33:28;;;;;;;1.67;0.30;;;6.90;99.90;;;;;;5091253;27;20178;-71
2023/12/30 01:35:57;;;;;;;1.45;0.50;;;6.90;99.90;;;;;;5112564;27;20036;-71
2023/12/30 01:38:22;;;;;;;2.83;0.25;;;6.80;99.90;;;;;;5100192;28;20035;-71
2023/12/30 01:40:48;;;;;;;0.28;0.28;;;6.80;99.90;;;;;;5103246;28;20044;-71
2023/12/30 01:43:25;;;;;;;1.10;0.30;;;6.80;99.90;;;;;;5104685;28;20038;-70
2023/12/30 01:45:52;;;;;;;3.63;0.20;;;6.80;99.90;;;;;;5087115;28;20043;-71
2023/12/30 01:48:19;;;;;;;2.28;0.32;;;6.80;99.90;;;;;;5106103;28;20035;-71
2023/12/30 01:50:46;;;;;;;0.22;0.22;;;6.80;99.90;;;;;;5099428;28;20051;-71
2023/12/30 01:53:12;;;;;;;0.10;0.10;;;6.80;99.90;;;;;;5096222;27;20031;-71
2023/12/30 01:55:37;;;;;;;0.13;0.13;;;6.80;99.90;;;;;;5109081;27;20027;-71
2023/12/30 01:58:03;;;;;;;1.00;0.13;;;6.80;99.90;;;;;;5092718;27;20111;-71
2023/12/30 02:00:31;;;;;;;0.73;0.20;;;6.80;99.90;;;;;;5103363;27;20054;-71
2023/12/30 02:02:57;;;;;;;1.15;0.20;;;6.80;99.90;;;;;;5112329;28;20114;-71
2023/12/30 02:05:23;;;;;;;0.75;0.20;;;6.80;99.90;;;;;;5107471;27;20134;-71
2023/12/30 02:07:48;;;;;;;0.52;0.10;;;6.80;99.90;;;;;;5105860;28;20051;-71
2023/12/30 02:10:14;;;;;;;1.25;0.10;;;6.70;99.90;;;;;;5103743;28;20050;-71
2023/12/30 02:12:40;;;;;;;0.20;0.10;;;6.80;99.90;;;;;;5111304;27;20031;-71
2023/12/30 02:15:24;;;;;;;0.80;0.22;;;6.80;99.90;;;;;;5107555;28;20069;-71
2023/12/30 02:17:51;;;;;;;0.73;0.38;;;6.70;99.90;;;;;;5090506;28;20635;-71
2023/12/30 02:20:18;;;;;;;1.20;0.20;;;6.70;99.90;;;;;;5092455;28;20043;-71
2023/12/30 02:22:47;;;;;;;4.07;0.15;;;6.80;99.90;;;;;;5085838;28;20088;-71
2023/12/30 02:25:14;;;;;;;2.20;0.30;;;6.80;99.90;;;;;;5109908;28;20719;-71
2023/12/30 02:27:42;;;;;;;0.35;0.20;;;6.80;99.90;;;;;;5111330;28;20426;-70
2023/12/30 02:30:08;;;;;;;0.00;0.00;;;6.80;99.90;;;;;;5110637;28;20046;-71
2023/12/30 02:32:34;;;;;;;0.00;0.00;;;6.80;99.90;;;;;;5103447;28;20035;-71
2023/12/30 02:34:59;;;;;;;0.10;0.00;;;6.80;99.90;;;;;;5108785;28;20058;-71
2023/12/30 02:37:25;;;;;;;0.35;0.10;;;6.80;99.90;;;;;;5087822;28;20400;-71
2023/12/30 02:39:51;;;;;;;2.17;0.15;;;6.80;99.90;;;;;;5093422;28;20031;-71
2023/12/30 02:42:16;;;;;;;0.00;0.00;;;6.80;99.90;;;;;;5107001;27;20035;-71
2023/12/30 02:44:42;;;;;;;1.02;0.10;;;6.80;99.90;;;;;;5109247;27;20043;-71
2023/12/30 02:47:07;;;;;;;5.90;1.70;;;6.80;99.90;;;;;;5108993;28;20055;-71
2023/12/30 02:49:33;;;;;;;0.45;0.15;;;6.80;99.90;;;;;;5106165;28;20048;-71
2023/12/30 02:51:59;;;;;;;0.70;0.17;;;6.80;99.90;;;;;;5113335;27;20038;-71
2023/12/30 02:54:26;;;;;;;0.00;0.00;;;6.80;99.90;;;;;;5107831;28;20492;-71
2023/12/30 02:56:52;;;;;;;0.43;0.32;;;6.70;99.90;;;;;;5093521;27;20034;-71
2023/12/30 02:59:17;;;;;;;0.75;0.63;;;6.70;99.90;;;;;;5090056;28;20035;-71
2023/12/30 03:01:43;;;;;;;0.22;0.10;;;6.70;99.90;;;;;;5108949;27;20031;-71
2023/12/30 03:04:08;;;;;;;0.30;0.20;;;6.70;99.90;;;;;;5089241;28;20039;-71
2023/12/30 03:06:34;;;;;;;2.10;0.40;;;6.70;99.90;;;;;;5112914;27;20031;-71
2023/12/30 03:09:00;;;;;;;1.45;0.20;;;6.70;99.90;;;;;;5101449;27;20031;-71
2023/12/30 03:11:25;;;;;;;2.05;0.10;;;6.70;99.90;;;;;;5112103;27;20574;-71
2023/12/30 03:13:51;;;;;;;2.15;0.47;;;6.80;99.90;;;;;;5109699;27;20114;-71
2023/12/30 03:16:18;;;;;;;0.43;0.15;;;6.80;99.90;;;;;;5103386;27;20775;-71
2023/12/30 03:18:44;;;;;;;1.75;0.20;;;6.80;99.90;;;;;;5112787;27;20114;-71
2023/12/30 03:21:13;;;;;;;0.28;0.20;;;6.80;99.90;;;;;;5113890;27;20052;-70
2023/12/30 03:23:39;;;;;;;0.80;0.25;;;6.80;99.90;;;;;;5105191;27;20085;-71
2023/12/30 03:26:06;;;;;;;3.90;0.28;;;6.90;99.90;;;;;;5094911;27;20105;-71
2023/12/30 03:28:32;;;;;;;1.65;0.35;;;6.90;99.90;;;;;;5110084;27;20040;-71
2023/12/30 03:30:57;;;;;;;0.22;0.10;;;6.80;99.90;;;;;;5115172;27;20504;-71
2023/12/30 03:33:24;;;;;;;0.93;0.10;;;6.90;99.90;;;;;;5089932;27;20542;-71
2023/12/30 03:35:50;;;;;;;0.45;0.30;;;6.90;99.90;;;;;;5090462;27;20035;-71
2023/12/30 03:38:15;;;;;;;0.30;0.20;;;6.90;99.90;;;;;;5110421;27;20039;-71
2023/12/30 03:40:41;;;;;;;0.25;0.20;;;6.90;99.90;;;;;;5113647;27;20046;-71
2023/12/30 03:43:06;;;;;;;1.45;0.88;;;6.90;99.90;;;;;;5116630;27;20062;-71
2023/12/30 03:45:32;;;;;;;4.28;0.20;;;6.90;99.90;;;;;;5108784;27;20058;-71
2023/12/30 03:47:58;;;;;;;4.47;0.20;;;6.80;99.90;;;;;;5117814;27;20038;-71
2023/12/30 03:50:23;;;;;;;0.03;0.03;;;6.80;99.90;;;;;;5117315;27;20062;-71
2023/12/30 03:52:50;;;;;;;2.38;0.25;;;6.80;99.90;;;;;;5116521;27;20127;-71
2023/12/30 03:55:16;;;;;;;1.13;0.20;;;6.80;99.90;;;;;;5085058;27;20554;-71
2023/12/30 03:57:41;;;;;;;0.10;0.00;;;6.80;99.90;;;;;;5116642;27;20118;-71
2023/12/30 04:00:07;;;;;;;0.00;0.00;;;6.80;99.90;;;;;;5108815;27;20066;-71
2023/12/30 04:02:33;;;;;;;0.20;0.10;;;6.70;99.90;;;;;;5111433;27;20066;-71
2023/12/30 04:04:58;;;;;;;0.40;0.20;;;6.80;99.90;;;;;;5106907;27;20040;-71
2023/12/30 04:07:24;;;;;;;0.77;0.10;;;6.70;99.90;;;;;;5096323;27;20031;-71
2023/12/30 04:09:50;;;;;;;0.90;0.40;;;6.70;99.90;;;;;;5111151;27;20055;-71
2023/12/30 04:12:16;;;;;;;0.32;0.20;;;6.70;99.90;;;;;;5113290;27;20468;-71
2023/12/30 04:14:41;;;;;;;0.30;0.20;;;6.70;99.90;;;;;;5114181;27;20028;-71
2023/12/30 04:17:07;;;;;;;0.43;0.17;;;6.70;99.90;;;;;;5097254;27;20110;-71
2023/12/30 04:19:32;;;;;;;5.03;0.63;;;6.70;99.90;;;;;;5106019;27;20040;-71
2023/12/30 04:21:58;;;;;;;0.43;0.38;;;6.70;99.90;;;;;;5108494;27;20050;-71
2023/12/30 04:24:24;;;;;;;0.65;0.30;;;6.70;99.90;;;;;;5101523;27;20503;-70
2023/12/30 04:26:51;;;;;;;0.65;0.32;;;6.70;99.90;;;;;;5112009;27;20027;-71
2023/12/30 04:29:16;;;;;;;2.17;0.40;;;6.60;99.90;;;;;;5111216;27;20494;-71
2023/12/30 04:31:42;;;;;;;1.17;0.43;;;6.70;99.90;;;;;;5093275;27;20062;-71
2023/12/30 04:34:08;;;;;;;0.88;0.38;;;6.60;99.90;;;;;;5110272;27;20031;-71
2023/12/30 04:36:33;;;;;;;3.17;0.52;;;6.60;99.90;;;;;;5088322;27;20031;-71
2023/12/30 04:38:59;;;;;;;2.88;0.20;;;6.60;99.90;;;;;;5115591;27;20088;-71
2023/12/30 04:41:25;;;;;;;0.40;0.17;;;6.60;99.90;;;;;;5112769;27;20043;-71
2023/12/30 04:43:50;;;;;;;0.38;0.20;;;6.60;99.90;;;;;;5118169;27;20676;-70
2023/12/30 04:46:16;;;;;;;1.25;0.20;;;6.60;99.90;;;;;;5110654;27;20039;-71
2023/12/30 04:48:41;;;;;;;2.10;0.55;;;6.60;99.90;;;;;;5086234;28;20666;-71
2023/12/30 04:51:07;;;;;;;0.10;0.10;;;6.60;99.90;;;;;;5109688;27;20042;-71
2023/12/30 04:53:33;;;;;;;0.20;0.20;;;6.60;99.90;;;;;;5113529;27;20042;-71
2023/12/30 04:55:59;;;;;;;0.93;0.50;;;6.60;99.90;;;;;;5118920;27;20408;-71
2023/12/30 04:58:24;;;;;;;0.20;0.20;;;6.60;99.90;;;;;;5110456;27;20043;-71
2023/12/30 05:00:50;;;;;;;2.17;1.00;;;6.60;99.90;;;;;;5117411;27;20039;-71
2023/12/30 05:03:17;;;;;;;8.52;1.08;;;6.60;99.90;;;;;;5094537;27;20425;-71
2023/12/30 05:05:42;;;;;;;1.70;0.25;;;6.60;99.90;;;;;;5106980;27;20069;-71
2023/12/30 05:08:08;;;;;;;0.40;0.30;;;6.60;99.90;;;;;;5097633;27;20058;-70
2023/12/30 05:10:34;;;;;;;0.20;0.17;;;6.60;99.90;;;;;;5110508;27;20031;-71
2023/12/30 05:13:00;;;;;;;1.30;0.30;;;6.50;99.90;;;;;;5097358;27;20530;-71
2023/12/30 05:15:26;;;;;;;0.30;0.20;;;6.50;99.90;;;;;;5116521;27;20048;-71
2023/12/30 05:17:53;;;;;;;0.50;0.30;;;6.50;99.90;;;;;;5108817;27;20038;-71
2023/12/30 05:20:19;;;;;;;1.98;0.55;;;6.50;99.90;;;;;;5094331;27;20039;-70
2023/12/30 05:22:45;;;;;;;3.05;0.28;;;6.50;99.90;;;;;;5108452;27;20035;-71
2023/12/30 05:25:10;;;;;;;1.25;0.15;;;6.60;99.90;;;;;;5101538;27;20085;-71
2023/12/30 05:27:37;;;;;;;2.40;0.60;;;6.60;99.90;;;;;;5105692;27;20035;-71
2023/12/30 05:30:10;;;;;;;3.05;0.28;;;6.50;99.90;;;;;;5114536;27;20074;-71
2023/12/30 05:32:35;;;;;;;0.35;0.35;;;6.50;99.90;;;;;;5087391;28;20043;-70
2023/12/30 05:35:01;;;;;;;0.20;0.20;;;6.50;99.90;;;;;;5105490;27;20455;-71
2023/12/30 05:37:27;;;;;;;0.43;0.13;;;6.50;99.90;;;;;;5097050;27;20030;-71
2023/12/30 05:39:52;;;;;;;1.33;0.20;;;6.50;99.90;;;;;;5098250;28;20155;-71
2023/12/30 05:42:18;;;;;;;0.85;0.30;;;6.50;99.90;;;;;;5097537;27;21811;-71
2023/12/30 05:44:44;;;;;;;3.03;0.45;;;6.50;99.90;;;;;;5089563;27;20039;-71
2023/12/30 05:47:10;;;;;;;0.60;0.60;;;6.50;99.90;;;;;;5117373;27;20130;-71
2023/12/30 05:49:42;;;;;;;0.30;0.20;;;6.50;99.90;;;;;;5112176;27;20122;-70
2023/12/30 05:52:08;;;;;;;0.32;0.13;;;6.50;99.90;;;;;;5109023;27;20050;-71
2023/12/30 05:54:34;;;;;;;0.10;0.10;;;6.40;99.90;;;;;;5102597;27;20037;-71
2023/12/30 05:57:00;;;;;;;2.92;0.55;;;6.40;99.90;;;;;;5113337;27;20039;-71
2023/12/30 05:59:26;;;;;;;0.20;0.20;;;6.40;99.90;;;;;;5092068;28;20035;-71
2023/12/30 06:01:52;;;;;;;2.92;0.90;;;6.40;99.90;;;;;;5097708;28;20042;-71
2023/12/30 06:04:18;;;;;;;0.20;0.10;;;6.40;99.90;;;;;;5108648;28;20032;-71
2023/12/30 06:06:44;;;;;;;1.73;0.40;;;6.50;99.90;;;;;;5105960;27;20038;-71
2023/12/30 06:09:09;;;;;;;2.20;0.28;;;6.50;99.90;;;;;;5105572;28;20044;-71
2023/12/30 06:11:35;;;;;;;1.40;0.30;;;6.50;99.90;;;;;;5090472;28;20485;-71
2023/12/30 06:14:01;;;;;;;0.32;0.00;;;6.50;99.90;;;;;;5106396;28;20031;-71
2023/12/30 06:16:26;;;;;;;0.55;0.40;;;6.50;99.90;;;;;;5105825;28;20649;-71
2023/12/30 06:18:52;;;;;;;1.02;0.30;;;6.50;99.90;;;;;;5087313;28;20193;-71
2023/12/30 06:21:18;;;;;;;0.28;0.20;;;6.60;99.90;;;;;;5085981;28;20031;-71
2023/12/30 06:23:43;;;;;;;0.20;0.10;;;6.50;99.90;;;;;;5114462;28;20058;-71
2023/12/30 06:26:09;;;;;;;0.55;0.30;;;6.60;99.90;;;;;;5094640;28;20036;-71
2023/12/30 06:28:34;;;;;;;2.28;0.77;;;6.60;99.90;;;;;;5096149;28;20038;-71
2023/12/30 06:31:00;;;;;;;0.30;0.30;;;6.50;99.90;;;;;;5078330;28;20126;-71
2023/12/30 06:33:26;;;;;;;1.70;0.25;;;6.50;99.90;;;;;;5106477;28;20043;-71
2023/12/30 06:35:52;;;;;;;4.80;0.38;;;6.50;99.90;;;;;;5111558;27;20623;-71
2023/12/30 06:38:17;;;;;;;3.20;0.52;;;6.60;99.90;;;;;;5112567;27;20396;-70
2023/12/30 06:40:45;;;;;;;2.20;0.45;;;6.50;99.90;;;;;;5119307;27;20067;-71
2023/12/30 06:43:14;;;;;;;2.58;0.13;;;6.50;99.90;;;;;;5099928;27;20063;-71
2023/12/30 06:45:40;;;;;;;0.65;0.15;;;6.50;99.90;;;;;;5113720;27;20059;-71
2023/12/30 06:48:06;;;;;;;1.58;0.20;;;6.50;99.90;;;;;;5111649;27;20097;-71
2023/12/30 06:50:31;;;;;;;1.95;0.28;;;6.50;99.90;;;;;;5103297;27;20043;-70
2023/12/30 06:53:00;;;;;;;1.88;0.13;;;6.50;99.90;;;;;;5093880;28;20051;-71
2023/12/30 06:55:26;;;;;;;0.65;0.40;;;6.50;99.90;;;;;;5110603;27;20499;-71
2023/12/30 06:57:52;;;;;;;0.40;0.20;;;6.50;99.90;;;;;;5109343;27;20035;-71
2023/12/30 07:00:18;;;;;;;0.15;0.10;;;6.50;99.90;;;;;;5119437;27;20535;-71
2023/12/30 07:02:44;;;;;;;5.65;0.45;;;6.50;99.90;;;;;;5113523;27;20047;-71
2023/12/30 07:05:10;;;;;;;0.52;0.17;;;6.50;99.90;;;;;;5111408;27;20092;-71
2023/12/30 07:07:36;;;;;;;1.52;0.40;;;6.50;99.90;;;;;;5113123;27;20403;-71
2023/12/30 07:10:04;;;;;;;0.95;0.28;;;6.50;99.90;;;;;;5115802;27;20634;-71
2023/12/30 07:12:29;;;;;;;1.90;0.40;;;6.50;99.90;;;;;;5116706;27;20194;-71
2023/12/30 07:14:55;;;;;;;2.03;0.28;;;6.50;99.90;;;;;;5116865;27;20399;-71
2023/12/30 07:17:21;;;;;;;4.22;0.98;;;6.50;99.90;;;;;;5113716;27;20059;-71
2023/12/30 07:19:46;;;;;;;0.60;0.10;;;6.50;99.90;;;;;;5092129;27;20034;-71
2023/12/30 07:22:12;;;;;;;1.08;0.25;;;6.50;99.90;;;;;;5088332;27;20151;-71
2023/12/30 07:24:38;;;;;;;1.40;0.45;;;6.50;99.90;;;;;;5089013;28;20044;-70
2023/12/30 07:27:04;;;;;;;0.47;0.30;;;6.50;99.90;;;;;;5115296;27;20701;-70
2023/12/30 07:29:30;;;;;;;2.30;0.30;;;6.60;99.90;;;;;;5113353;27;20047;-71
2023/12/30 07:31:56;;;;;;;0.93;0.35;;;6.50;99.90;;;;;;5098062;28;20047;-71
2023/12/30 07:34:21;;;;;;;1.38;0.40;;;6.50;99.90;;;;;;5112270;27;20492;-71
2023/12/30 07:36:48;;;;;;;0.13;0.10;;;6.50;99.90;;;;;;5106694;27;20032;-71
2023/12/30 07:39:13;;;;;;;0.00;0.00;;;6.50;99.90;;;;;;5091009;28;20118;-71
2023/12/30 07:41:39;;;;;;;0.73;0.05;;;6.40;99.90;;;;;;5099946;28;20123;-71
2023/12/30 07:44:05;;;;;;;1.23;0.60;;;6.40;99.90;;;;;;5082031;28;20171;-71
2023/12/30 07:46:31;;;;;;;0.32;0.32;;;6.40;99.90;;;;;;5082160;28;20043;-71
2023/12/30 07:48:57;;;;;;;0.47;0.30;;;6.40;99.90;;;;;;5086850;27;20035;-71
2023/12/30 07:51:23;;;;;;;1.15;0.45;;;6.30;99.90;;;;;;5112458;27;20045;-71
2023/12/30 07:53:49;;;;;;;1.25;0.32;;;6.30;99.90;;;;;;5117106;27;20516;-70
2023/12/30 07:56:16;;;;;;;0.52;0.30;;;6.30;99.90;;;;;;5112460;27;20467;-70
2023/12/30 07:58:42;;;;;;;5.70;0.20;;;6.30;99.90;;;;;;5109485;27;20027;-70
2023/12/30 08:01:08;;;;;;;0.30;0.20;;;6.20;99.90;;;;;;5115262;27;20382;-71
2023/12/30 08:03:34;;;;;;;0.82;0.47;;;6.20;99.90;;;;;;5087650;27;20488;-71
2023/12/30 08:05:59;;;;;;;0.03;0.03;;;6.20;99.90;;;;;;5111519;27;20058;-71
2023/12/30 08:08:25;;;;;;;1.20;0.47;;;6.10;99.90;;;;;;5110512;27;20042;-71
2023/12/30 08:10:51;;;;;;;0.17;0.15;;;6.10;99.90;;;;;;5119592;27;20035;-71
2023/12/30 08:13:16;;;;;;;0.77;0.20;;;6.10;99.90;;;;;;5093573;27;20063;-71
2023/12/30 08:15:42;;;;;;;2.20;0.20;;;6.10;99.90;;;;;;5112454;27;20027;-71
2023/12/30 08:18:08;;;;;;;1.25;0.40;;;6.10;99.90;;;;;;5109818;27;20079;-71
2023/12/30 08:20:33;;;;;;;0.10;0.10;;;6.10;99.90;;;;;;5089810;27;20078;-70
2023/12/30 08:22:59;;;;;;;0.80;0.45;;;6.10;99.90;;;;;;5091629;27;20120;-71
2023/12/30 08:25:25;;;;;;;0.40;0.13;;;6.00;99.90;;;;;;5108251;27;20035;-71
2023/12/30 08:27:50;;;;;;;0.30;0.20;;;6.00;99.90;;;;;;5103501;27;20549;-71
2023/12/30 08:30:16;;;;;;;3.05;0.52;;;6.00;99.90;;;;;;5113017;27;20031;-71
2023/12/30 08:32:42;;;;;;;1.35;0.20;;;6.00;99.90;;;;;;5112594;27;20080;-71
2023/12/30 08:35:08;;;;;;;1.55;0.30;;;6.00;99.90;;;;;;5113654;27;20279;-70
2023/12/30 08:37:35;;;;;;;1.23;0.40;;;6.00;99.90;;;;;;5111798;27;20065;-71
2023/12/30 08:40:05;;;;;;;2.15;0.50;;;6.00;99.90;;;;;;5112591;27;20491;-71
2023/12/30 08:42:34;;;;;;;1.40;0.20;;;6.00;99.90;;;;;;5106396;27;20525;-71
2023/12/30 08:45:01;;;;;;;0.40;0.30;;;6.10;99.90;;;;;;5094208;27;20043;-71
2023/12/30 08:47:28;;;;;;;1.45;0.10;;;6.10;99.90;;;;;;5094394;27;20032;-71
2023/12/30 08:49:54;;;;;;;0.47;0.20;;;6.10;99.90;;;;;;5091750;27;20081;-71
2023/12/30 08:52:20;;;;;;;0.28;0.20;;;6.20;99.90;;;;;;5098314;27;20492;-70
2023/12/30 08:54:45;;;;;;;0.00;0.00;;;6.20;99.90;;;;;;5110539;27;20063;-71
2023/12/30 08:57:11;;;;;;;0.45;0.35;;;6.20;99.90;;;;;;5107527;27;20036;-71
2023/12/30 08:59:38;;;;;;;1.85;0.20;;;6.30;99.90;;;;;;5107413;27;20031;-71
2023/12/30 09:02:04;;;;;;;1.02;0.32;;;6.30;99.90;;;;;;5106431;27;20496;-70
2023/12/30 09:04:29;;;;;;;0.52;0.30;;;6.30;99.90;;;;;;5088512;28;20113;-71
2023/12/30 09:06:55;;;;;;;0.50;0.20;;;6.40;99.90;;;;;;5098929;27;20096;-70
2023/12/30 09:09:21;;;;;;;3.25;0.40;;;6.40;99.90;;;;;;5121611;27;20516;-70
2023/12/30 09:11:46;;;;;;;0.73;0.22;;;6.40;99.90;;;;;;5118514;27;20476;-70
2023/12/30 09:14:13;;;;;;;0.45;0.30;;;6.40;99.90;;;;;;5092099;28;20049;-71
2023/12/30 09:16:38;;;;;;;4.32;0.68;;;6.50;99.90;;;;;;5100028;28;20051;-71
2023/12/30 09:19:04;;;;;;;1.67;0.25;;;6.50;99.90;;;;;;5097309;28;20028;-70
2023/12/30 09:21:30;;;;;;;0.80;0.30;;;6.50;99.90;;;;;;5105550;28;21675;-71
2023/12/30 09:23:56;;;;;;;0.45;0.20;;;6.50;99.90;;;;;;5109257;28;20360;-70
2023/12/30 09:26:22;;;;;;;0.20;0.10;;;6.60;99.90;;;;;;5108347;28;20412;-70
2023/12/30 09:28:47;;;;;;;0.68;0.40;;;6.60;99.90;;;;;;5108493;28;20039;-70
2023/12/30 09:31:13;;;;;;;0.70;0.38;;;6.60;99.90;;;;;;5102263;28;20043;-71
2023/12/30 09:33:39;;;;;;;2.65;0.50;;;6.50;99.90;;;;;;5090105;28;20417;-71
2023/12/30 09:36:06;;;;;;;0.40;0.30;;;6.50;99.90;;;;;;5108955;28;20119;-70
2023/12/30 09:38:31;;;;;;;1.27;0.75;;;6.50;99.90;;;;;;5108392;28;20039;-70
2023/12/30 09:40:57;;;;;;;3.42;1.15;;;6.50;99.90;;;;;;5107029;28;20043;-70
2023/12/30 09:43:25;;;;;;;3.58;0.45;;;6.60;99.90;;;;;;5107743;28;20126;-70
2023/12/30 09:45:53;;;;;;;2.53;0.28;;;6.60;99.90;;;;;;5104673;28;20063;-70
2023/12/30 09:48:26;;;;;;;2.35;0.30;;;6.60;99.90;;;;;;5081977;28;20080;-71
2023/12/30 09:50:56;;;;;;;0.17;0.17;;;6.60;99.90;;;;;;5108240;28;20344;-71
2023/12/30 09:53:26;;;;;;;0.10;0.10;;;6.70;99.90;;;;;;5091495;28;20032;-70
2023/12/30 09:55:53;;;;;;;0.20;0.20;;;6.70;99.90;;;;;;5106917;28;20046;-70
2023/12/30 09:58:20;;;;;;;1.40;0.20;;;6.70;99.90;;;;;;5095607;28;20734;-70
2023/12/30 10:00:46;;;;;;;1.00;0.50;;;6.70;99.90;;;;;;5100635;28;20092;-70
2023/12/30 10:03:14;;;;;;;1.20;0.55;;;6.70;99.90;;;;;;5105015;28;20114;-70
2023/12/30 10:05:40;;;;;;;0.93;0.30;;;6.70;99.90;;;;;;5107738;28;20050;-70
2023/12/30 10:08:07;;;;;;;2.10;0.22;;;6.70;99.90;;;;;;5108601;28;20057;-70
2023/12/30 10:10:43;;;;;;;1.58;0.28;;;6.80;99.90;;;;;;5083173;28;20525;-71
2023/12/30 10:13:09;;;;;;;0.20;0.20;;;6.80;99.90;;;;;;5107615;28;20507;-71
2023/12/30 10:15:34;;;;;;;1.42;0.80;;;6.80;99.90;;;;;;5085246;28;20415;-70
2023/12/30 10:18:00;;;;;;;3.92;0.30;;;6.90;99.90;;;;;;5108202;28;20042;-70
2023/12/30 10:20:26;;;;;;;1.83;0.43;;;6.90;99.90;;;;;;5084755;28;20039;-71
2023/12/30 10:22:51;;;;;;;0.28;0.28;;;6.90;99.90;;;;;;5090911;28;20343;-70
2023/12/30 10:25:17;;;;;;;1.17;0.30;;;6.90;99.90;;;;;;5103475;28;20065;-70
2023/12/30 10:27:47;;;;;;;1.67;0.65;;;6.90;99.90;;;;;;5111558;28;20049;-70
2023/12/30 10:30:17;;;;;;;0.80;0.55;;;6.90;99.90;;;;;;5093224;28;20409;-71
2023/12/30 10:32:43;;;;;;;2.00;0.55;;;6.90;99.90;;;;;;5099122;28;20476;-70
2023/12/30 10:35:08;;;;;;;1.65;0.85;;;6.90;99.90;;;;;;5093463;28;20643;-70
2023/12/30 10:37:35;;;;;;;1.00;0.30;;;6.90;99.90;;;;;;5100098;28;20050;-70
2023/12/30 10:40:03;;;;;;;0.95;0.68;;;7.00;99.90;;;;;;5102260;28;20071;-70
2023/12/30 10:42:28;;;;;;;0.47;0.10;;;7.00;99.90;;;;;;5105499;27;20051;-70
2023/12/30 10:44:54;;;;;;;0.98;0.43;;;7.00;99.90;;;;;;5112385;27;20047;-70
2023/12/30 10:47:22;;;;;;;3.05;0.68;;;7.00;99.90;;;;;;5117753;27;20465;-70
2023/12/30 10:49:54;;;;;;;1.60;0.25;;;7.10;99.90;;;;;;5108081;28;20096;-70
2023/12/30 10:52:26;;;;;;;1.10;0.80;;;7.10;99.90;;;;;;5101585;28;20408;-70
2023/12/30 10:55:02;;;;;;;0.55;0.40;;;7.10;99.90;;;;;;5106069;28;20035;-70
2023/12/30 10:57:30;;;;;;;0.98;0.40;;;7.10;99.90;;;;;;5087323;28;20047;-70
2023/12/30 10:59:58;;;;;;;1.45;0.52;;;7.10;99.90;;;;;;5110057;28;20090;-70
2023/12/30 11:02:25;;;;;;;0.70;0.28;;;7.10;99.90;;;;;;5097979;28;20043;-70
2023/12/30 11:04:51;;;;;;;1.85;0.57;;;7.20;99.90;;;;;;5107072;28;20046;-70
2023/12/30 11:07:19;;;;;;;2.42;0.60;;;7.20;99.90;;;;;;5100710;28;20039;-70
2023/12/30 11:09:45;;;;;;;1.55;0.43;;;7.20;99.90;;;;;;5097703;28;20063;-70
2023/12/30 11:12:10;;;;;;;3.92;1.00;;;7.20;99.90;;;;;;5109863;28;20492;-71
2023/12/30 11:14:36;;;;;;;0.70;0.40;;;7.20;99.90;;;;;;5078244;28;20084;-71
2023/12/30 11:17:02;;;;;;;1.23;0.55;;;7.30;99.90;;;;;;5107207;28;20108;-71
2023/12/30 11:19:32;;;;;;;0.98;0.20;;;7.30;99.90;;;;;;5088446;28;20111;-71
2023/12/30 11:23:16;;;;;;;1.23;0.50;;;7.30;99.90;;;;;;5147271;27;20366;-71
2023/12/30 11:25:48;;;;;;;4.85;0.50;;;7.40;99.90;;;;;;5125146;27;20051;-71
2023/12/30 11:28:16;;;;;;;4.10;0.73;;;7.40;99.90;;;;;;5123256;27;20031;-71
2023/12/30 11:30:51;;;;;;;0.95;0.40;;;7.40;99.90;;;;;;5125556;27;20491;-71
2023/12/30 11:33:17;;;;;;;1.15;0.55;;;7.40;99.90;;;;;;5140203;27;20146;-72
2023/12/30 11:35:43;;;;;;;2.03;0.90;;;7.50;99.90;;;;;;5122256;27;20046;-71
2023/12/30 11:38:12;;;;;;;15.13;6.53;;;7.50;99.90;;;;;;5125203;27;20039;-71
2023/12/30 11:40:42;;;;;;;3.10;1.20;;;7.50;99.90;;;;;;5114291;27;20087;-71
2023/12/30 11:43:10;;;;;;;2.17;1.95;;;7.60;99.90;;;;;;5112986;27;20034;-71
2023/12/30 11:45:37;;;;;;;1.40;0.70;;;7.60;99.90;;;;;;5125299;27;20473;-71
2023/12/30 11:48:03;;;;;;;2.60;0.90;;;7.60;99.90;;;;;;5124099;27;20610;-71
2023/12/30 11:50:29;;;;;;;3.38;0.90;;;7.70;99.90;;;;;;5106378;27;20038;-71
2023/12/30 11:52:56;;;;;;;2.40;0.70;;;7.70;99.90;;;;;;5110240;27;20042;-71
2023/12/30 11:55:24;;;;;;;3.30;0.90;;;7.70;99.90;;;;;;5133771;27;20053;-71
2023/12/30 11:57:50;;;;;;;2.97;1.42;;;7.70;99.90;;;;;;5121439;27;20047;-70
2023/12/30 12:00:15;;;;;;;7.85;3.65;;;7.70;99.90;;;;;;5128077;27;20440;-70
2023/12/30 12:02:41;;;;;;;10.32;4.32;;;7.80;99.90;;;;;;5118546;27;20034;-70
2023/12/30 12:05:07;;;;;;;2.92;1.05;;;7.80;99.90;;;;;;5126741;27;20081;-70
2023/12/30 12:07:33;;;;;;;1.52;0.73;;;7.80;99.90;;;;;;5112767;27;20107;-70
2023/12/30 12:09:59;;;;;;;3.60;1.35;;;7.80;99.90;;;;;;5133064;27;20270;-71
2023/12/30 12:12:33;;;;;;;8.90;2.25;;;7.90;99.90;;;;;;5145771;27;20039;-70
2023/12/30 12:14:58;;;;;;;5.18;0.80;;;7.90;99.90;;;;;;5129958;27;20078;-70
2023/12/30 12:17:24;;;;;;;1.35;0.70;;;7.90;99.90;;;;;;5122183;27;20041;-70
2023/12/30 12:19:50;;;;;;;3.45;0.68;;;8.00;99.90;;;;;;5131377;27;20033;-70
2023/12/30 12:22:16;;;;;;;1.05;0.68;;;8.00;99.90;;;;;;5120452;27;20043;-70
2023/12/30 12:24:42;;;;;;;2.38;1.13;;;8.10;99.90;;;;;;5133724;27;20097;-71
2023/12/30 12:27:08;;;;;;;2.28;0.70;;;8.10;99.90;;;;;;5129595;27;20038;-71
2023/12/30 12:29:51;;;;;;;19.63;6.50;;;8.10;99.90;;;;;;5125116;27;20036;-71
2023/12/30 12:32:23;;;;;;;3.88;1.52;;;8.10;99.90;;;;;;5107075;27;20061;-71
2023/12/30 12:34:51;;;;;;;2.53;0.82;;;8.20;99.90;;;;;;5102641;27;20046;-71
2023/12/30 12:37:17;;;;;;;2.45;0.90;;;8.20;99.90;;;;;;5097070;27;20035;-71
2023/12/30 12:39:46;;;;;;;1.40;1.00;;;8.20;99.90;;;;;;5098575;27;20563;-71
2023/12/30 12:42:14;;;;;;;1.98;0.75;;;8.20;99.90;;;;;;5093427;27;20038;-71
2023/12/30 12:44:40;;;;;;;6.38;0.93;;;8.30;99.90;;;;;;5111774;27;20031;-71
2023/12/30 12:47:09;;;;;;;6.25;0.70;;;8.30;99.90;;;;;;5094365;27;20130;-71
2023/12/30 12:49:35;;;;;;;1.13;0.40;;;8.30;99.90;;;;;;5115089;27;20073;-71
2023/12/30 12:52:02;;;;;;;1.05;0.45;;;8.30;99.90;;;;;;5111023;27;20134;-71
2023/12/30 12:54:29;;;;;;;1.42;0.88;;;8.30;99.90;;;;;;5107132;27;20047;-72